sensor_id;sensor_type;location;lat;lon;timestamp;P1;durP1;ratioP1;P2;durP2;ratioP2
69358;SDS011;56520;49.066;8.660;2023-01-28T00:04:07;2.03;;;0.97;;
69358;SDS011;56520;49.066;8.660;2023-01-28T00:06:33;3.08;;;1.20;;
69358;SDS011;56520;49.066;8.660;2023-01-28T00:08:58;2.75;;;1.25;;
69358;SDS011;56520;49.066;8.660;2023-01-28T00:11:24;2.95;;;1.00;;
69358;SDS011;56520;49.066;8.660;2023-01-28T00:16:16;3.10;;;0.90;;
69358;SDS011;56520;49.066;8.660;2023-01-28T00:21:12;2.40;;;0.98;;
69358;SDS011;56520;49.066;8.660;2023-01-28T00:23:39;3.50;;;1.40;;
69358;SDS011;56520;49.066;8.660;2023-01-28T00:26:07;3.17;;;1.13;;
69358;SDS011;56520;49.066;8.660;2023-01-28T00:28:35;2.95;;;0.98;;
69358;SDS011;56520;49.066;8.660;2023-01-28T00:31:14;2.50;;;0.90;;
69358;SDS011;56520;49.066;8.660;2023-01-28T00:33:45;1.95;;;0.82;;
69358;SDS011;56520;49.066;8.660;2023-01-28T00:36:12;2.50;;;1.05;;
69358;SDS011;56520;49.066;8.660;2023-01-28T00:38:38;1.92;;;0.77;;
69358;SDS011;56520;49.066;8.660;2023-01-28T00:41:11;3.88;;;1.13;;
69358;SDS011;56520;49.066;8.660;2023-01-28T00:43:38;1.85;;;0.80;;
69358;SDS011;56520;49.066;8.660;2023-01-28T00:46:05;2.70;;;1.00;;
69358;SDS011;56520;49.066;8.660;2023-01-28T00:48:31;1.90;;;0.77;;
69358;SDS011;56520;49.066;8.660;2023-01-28T00:51:00;1.08;;;0.63;;
69358;SDS011;56520;49.066;8.660;2023-01-28T00:53:25;1.95;;;1.00;;
69358;SDS011;56520;49.066;8.660;2023-01-28T00:58:16;2.15;;;0.88;;
69358;SDS011;56520;49.066;8.660;2023-01-28T01:00:43;2.33;;;1.23;;
69358;SDS011;56520;49.066;8.660;2023-01-28T01:03:08;4.07;;;0.68;;
69358;SDS011;56520;49.066;8.660;2023-01-28T01:07:59;1.60;;;0.67;;
69358;SDS011;56520;49.066;8.660;2023-01-28T01:10:24;1.80;;;0.90;;
69358;SDS011;56520;49.066;8.660;2023-01-28T01:15:16;3.50;;;1.27;;
69358;SDS011;56520;49.066;8.660;2023-01-28T01:17:43;3.58;;;1.35;;
69358;SDS011;56520;49.066;8.660;2023-01-28T01:20:12;1.30;;;0.70;;
69358;SDS011;56520;49.066;8.660;2023-01-28T01:22:48;2.55;;;1.05;;
69358;SDS011;56520;49.066;8.660;2023-01-28T01:25:14;2.00;;;0.80;;
69358;SDS011;56520;49.066;8.660;2023-01-28T01:27:41;2.55;;;0.95;;
69358;SDS011;56520;49.066;8.660;2023-01-28T01:30:07;2.53;;;0.82;;
69358;SDS011;56520;49.066;8.660;2023-01-28T01:32:33;1.58;;;0.70;;
69358;SDS011;56520;49.066;8.660;2023-01-28T01:35:00;0.93;;;0.60;;
69358;SDS011;56520;49.066;8.660;2023-01-28T01:37:26;1.05;;;0.55;;
69358;SDS011;56520;49.066;8.660;2023-01-28T01:39:52;2.35;;;0.90;;
69358;SDS011;56520;49.066;8.660;2023-01-28T01:42:18;1.52;;;0.70;;
69358;SDS011;56520;49.066;8.660;2023-01-28T01:47:46;1.92;;;0.77;;
69358;SDS011;56520;49.066;8.660;2023-01-28T01:52:58;2.15;;;1.05;;
69358;SDS011;56520;49.066;8.660;2023-01-28T01:55:28;1.17;;;0.73;;
69358;SDS011;56520;49.066;8.660;2023-01-28T01:57:57;1.90;;;0.77;;
69358;SDS011;56520;49.066;8.660;2023-01-28T02:00:28;2.35;;;1.10;;
69358;SDS011;56520;49.066;8.660;2023-01-28T02:02:53;0.80;;;0.50;;
69358;SDS011;56520;49.066;8.660;2023-01-28T02:05:20;0.95;;;0.60;;
69358;SDS011;56520;49.066;8.660;2023-01-28T02:07:47;2.58;;;0.73;;
69358;SDS011;56520;49.066;8.660;2023-01-28T02:10:15;2.55;;;1.27;;
69358;SDS011;56520;49.066;8.660;2023-01-28T02:12:46;3.67;;;0.93;;
69358;SDS011;56520;49.066;8.660;2023-01-28T02:15:17;1.23;;;0.60;;
69358;SDS011;56520;49.066;8.660;2023-01-28T02:17:45;1.38;;;0.70;;
69358;SDS011;56520;49.066;8.660;2023-01-28T02:20:13;2.35;;;1.00;;
69358;SDS011;56520;49.066;8.660;2023-01-28T02:23:16;1.98;;;0.90;;
69358;SDS011;56520;49.066;8.660;2023-01-28T02:31:45;2.33;;;1.17;;
69358;SDS011;56520;49.066;8.660;2023-01-28T02:37:16;2.47;;;0.90;;
69358;SDS011;56520;49.066;8.660;2023-01-28T02:39:50;3.17;;;0.80;;
69358;SDS011;56520;49.066;8.660;2023-01-28T02:42:26;2.75;;;1.13;;
69358;SDS011;56520;49.066;8.660;2023-01-28T02:44:54;2.35;;;0.68;;
69358;SDS011;56520;49.066;8.660;2023-01-28T02:47:20;2.03;;;0.80;;
69358;SDS011;56520;49.066;8.660;2023-01-28T02:50:06;2.28;;;1.02;;
69358;SDS011;56520;49.066;8.660;2023-01-28T02:52:55;1.73;;;0.93;;
69358;SDS011;56520;49.066;8.660;2023-01-28T02:58:48;1.40;;;0.70;;
69358;SDS011;56520;49.066;8.660;2023-01-28T03:01:38;2.05;;;0.90;;
69358;SDS011;56520;49.066;8.660;2023-01-28T03:04:09;1.25;;;0.70;;
69358;SDS011;56520;49.066;8.660;2023-01-28T03:06:59;1.77;;;0.85;;
69358;SDS011;56520;49.066;8.660;2023-01-28T03:09:29;1.23;;;0.70;;
69358;SDS011;56520;49.066;8.660;2023-01-28T03:12:04;1.13;;;0.60;;
69358;SDS011;56520;49.066;8.660;2023-01-28T03:15:11;0.70;;;0.40;;
69358;SDS011;56520;49.066;8.660;2023-01-28T03:21:27;1.10;;;0.52;;
69358;SDS011;56520;49.066;8.660;2023-01-28T03:24:13;1.67;;;0.80;;
69358;SDS011;56520;49.066;8.660;2023-01-28T03:30:10;0.80;;;0.50;;
69358;SDS011;56520;49.066;8.660;2023-01-28T03:32:57;1.83;;;0.70;;
69358;SDS011;56520;49.066;8.660;2023-01-28T03:35:42;1.65;;;0.80;;
69358;SDS011;56520;49.066;8.660;2023-01-28T03:38:27;1.42;;;0.70;;
69358;SDS011;56520;49.066;8.660;2023-01-28T03:43:31;1.60;;;0.60;;
69358;SDS011;56520;49.066;8.660;2023-01-28T03:48:24;1.30;;;0.50;;
69358;SDS011;56520;49.066;8.660;2023-01-28T03:50:52;1.35;;;0.70;;
69358;SDS011;56520;49.066;8.660;2023-01-28T03:53:19;1.35;;;0.60;;
69358;SDS011;56520;49.066;8.660;2023-01-28T03:55:46;0.90;;;0.63;;
69358;SDS011;56520;49.066;8.660;2023-01-28T03:58:13;3.88;;;1.10;;
69358;SDS011;56520;49.066;8.660;2023-01-28T04:00:39;1.90;;;0.80;;
69358;SDS011;56520;49.066;8.660;2023-01-28T04:03:13;0.65;;;0.57;;
69358;SDS011;56520;49.066;8.660;2023-01-28T04:05:45;2.75;;;0.73;;
69358;SDS011;56520;49.066;8.660;2023-01-28T04:08:22;1.30;;;0.60;;
69358;SDS011;56520;49.066;8.660;2023-01-28T04:13:14;0.63;;;0.60;;
69358;SDS011;56520;49.066;8.660;2023-01-28T04:15:41;0.38;;;0.30;;
69358;SDS011;56520;49.066;8.660;2023-01-28T04:18:07;2.33;;;0.98;;
69358;SDS011;56520;49.066;8.660;2023-01-28T04:20:33;0.85;;;0.50;;
69358;SDS011;56520;49.066;8.660;2023-01-28T04:22:59;1.52;;;0.57;;
69358;SDS011;56520;49.066;8.660;2023-01-28T04:27:50;0.80;;;0.53;;
69358;SDS011;56520;49.066;8.660;2023-01-28T04:30:15;0.52;;;0.43;;
69358;SDS011;56520;49.066;8.660;2023-01-28T04:35:06;0.30;;;0.30;;
69358;SDS011;56520;49.066;8.660;2023-01-28T04:39:57;1.70;;;0.60;;
69358;SDS011;56520;49.066;8.660;2023-01-28T04:44:48;2.70;;;1.05;;
69358;SDS011;56520;49.066;8.660;2023-01-28T04:49:39;2.20;;;1.10;;
69358;SDS011;56520;49.066;8.660;2023-01-28T04:54:29;2.03;;;0.80;;
69358;SDS011;56520;49.066;8.660;2023-01-28T04:56:55;2.38;;;0.90;;
69358;SDS011;56520;49.066;8.660;2023-01-28T05:01:47;1.77;;;0.82;;
69358;SDS011;56520;49.066;8.660;2023-01-28T05:04:13;2.92;;;1.27;;
69358;SDS011;56520;49.066;8.660;2023-01-28T05:09:04;2.58;;;0.98;;
69358;SDS011;56520;49.066;8.660;2023-01-28T05:13:55;3.08;;;1.40;;
69358;SDS011;56520;49.066;8.660;2023-01-28T05:16:20;3.03;;;1.17;;
69358;SDS011;56520;49.066;8.660;2023-01-28T05:21:12;5.65;;;1.30;;
69358;SDS011;56520;49.066;8.660;2023-01-28T05:23:37;3.50;;;1.15;;
69358;SDS011;56520;49.066;8.660;2023-01-28T05:26:03;3.35;;;1.42;;
69358;SDS011;56520;49.066;8.660;2023-01-28T05:30:54;2.47;;;1.07;;
69358;SDS011;56520;49.066;8.660;2023-01-28T05:33:19;2.78;;;1.20;;
69358;SDS011;56520;49.066;8.660;2023-01-28T05:38:10;1.27;;;0.73;;
69358;SDS011;56520;49.066;8.660;2023-01-28T05:43:01;1.10;;;0.67;;
69358;SDS011;56520;49.066;8.660;2023-01-28T05:45:26;3.25;;;1.10;;
69358;SDS011;56520;49.066;8.660;2023-01-28T05:47:51;2.95;;;1.20;;
69358;SDS011;56520;49.066;8.660;2023-01-28T05:52:42;3.95;;;1.45;;
69358;SDS011;56520;49.066;8.660;2023-01-28T05:55:08;3.00;;;1.15;;
69358;SDS011;56520;49.066;8.660;2023-01-28T05:57:34;3.40;;;1.52;;
69358;SDS011;56520;49.066;8.660;2023-01-28T05:59:59;3.22;;;1.23;;
69358;SDS011;56520;49.066;8.660;2023-01-28T06:04:56;2.78;;;1.20;;
69358;SDS011;56520;49.066;8.660;2023-01-28T06:07:22;2.88;;;1.10;;
69358;SDS011;56520;49.066;8.660;2023-01-28T06:09:48;2.65;;;1.05;;
69358;SDS011;56520;49.066;8.660;2023-01-28T06:12:13;3.25;;;1.30;;
69358;SDS011;56520;49.066;8.660;2023-01-28T06:14:39;2.17;;;0.90;;
69358;SDS011;56520;49.066;8.660;2023-01-28T06:17:04;2.25;;;0.90;;
69358;SDS011;56520;49.066;8.660;2023-01-28T06:21:55;1.67;;;0.80;;
69358;SDS011;56520;49.066;8.660;2023-01-28T06:24:20;4.05;;;1.65;;
69358;SDS011;56520;49.066;8.660;2023-01-28T06:26:46;2.70;;;1.02;;
69358;SDS011;56520;49.066;8.660;2023-01-28T06:29:12;2.75;;;0.95;;
69358;SDS011;56520;49.066;8.660;2023-01-28T06:31:37;2.00;;;0.95;;
69358;SDS011;56520;49.066;8.660;2023-01-28T06:36:28;1.58;;;0.80;;
69358;SDS011;56520;49.066;8.660;2023-01-28T06:41:19;2.83;;;1.07;;
69358;SDS011;56520;49.066;8.660;2023-01-28T06:43:44;2.35;;;1.10;;
69358;SDS011;56520;49.066;8.660;2023-01-28T06:46:10;1.60;;;0.70;;
69358;SDS011;56520;49.066;8.660;2023-01-28T06:51:01;3.08;;;1.17;;
69358;SDS011;56520;49.066;8.660;2023-01-28T06:55:51;2.70;;;1.40;;
69358;SDS011;56520;49.066;8.660;2023-01-28T07:00:42;3.90;;;1.47;;
69358;SDS011;56520;49.066;8.660;2023-01-28T07:03:07;4.18;;;1.40;;
69358;SDS011;56520;49.066;8.660;2023-01-28T07:08:01;3.72;;;1.40;;
69358;SDS011;56520;49.066;8.660;2023-01-28T07:10:27;4.35;;;1.73;;
69358;SDS011;56520;49.066;8.660;2023-01-28T07:15:18;3.03;;;1.27;;
69358;SDS011;56520;49.066;8.660;2023-01-28T07:17:44;3.45;;;0.88;;
69358;SDS011;56520;49.066;8.660;2023-01-28T07:22:37;2.28;;;0.90;;
69358;SDS011;56520;49.066;8.660;2023-01-28T07:25:05;3.50;;;1.10;;
69358;SDS011;56520;49.066;8.660;2023-01-28T07:27:31;3.05;;;1.15;;
69358;SDS011;56520;49.066;8.660;2023-01-28T07:29:57;4.72;;;2.10;;
69358;SDS011;56520;49.066;8.660;2023-01-28T07:34:50;3.78;;;1.42;;
69358;SDS011;56520;49.066;8.660;2023-01-28T07:37:16;3.65;;;1.15;;
69358;SDS011;56520;49.066;8.660;2023-01-28T07:42:06;4.40;;;2.13;;
69358;SDS011;56520;49.066;8.660;2023-01-28T07:44:32;2.35;;;1.38;;
69358;SDS011;56520;49.066;8.660;2023-01-28T07:46:58;3.53;;;1.55;;
69358;SDS011;56520;49.066;8.660;2023-01-28T07:49:23;5.20;;;1.98;;
69358;SDS011;56520;49.066;8.660;2023-01-28T07:54:15;4.75;;;1.60;;
69358;SDS011;56520;49.066;8.660;2023-01-28T07:56:41;5.13;;;2.22;;
69358;SDS011;56520;49.066;8.660;2023-01-28T07:59:06;4.40;;;1.77;;
69358;SDS011;56520;49.066;8.660;2023-01-28T08:01:32;3.67;;;1.45;;
69358;SDS011;56520;49.066;8.660;2023-01-28T08:06:23;5.60;;;2.10;;
69358;SDS011;56520;49.066;8.660;2023-01-28T08:11:14;5.10;;;2.05;;
69358;SDS011;56520;49.066;8.660;2023-01-28T08:16:04;4.00;;;1.67;;
69358;SDS011;56520;49.066;8.660;2023-01-28T08:20:56;8.43;;;3.83;;
69358;SDS011;56520;49.066;8.660;2023-01-28T08:23:22;8.50;;;4.00;;
69358;SDS011;56520;49.066;8.660;2023-01-28T08:25:56;10.05;;;3.65;;
69358;SDS011;56520;49.066;8.660;2023-01-28T08:28:22;5.30;;;1.88;;
69358;SDS011;56520;49.066;8.660;2023-01-28T08:30:51;6.22;;;2.20;;
69358;SDS011;56520;49.066;8.660;2023-01-28T08:35:43;4.13;;;1.70;;
69358;SDS011;56520;49.066;8.660;2023-01-28T08:40:35;3.30;;;1.35;;
69358;SDS011;56520;49.066;8.660;2023-01-28T08:45:26;5.78;;;1.55;;
69358;SDS011;56520;49.066;8.660;2023-01-28T08:47:53;3.75;;;1.40;;
69358;SDS011;56520;49.066;8.660;2023-01-28T08:50:21;3.70;;;1.48;;
69358;SDS011;56520;49.066;8.660;2023-01-28T08:52:47;3.47;;;1.52;;
69358;SDS011;56520;49.066;8.660;2023-01-28T08:55:19;4.57;;;1.55;;
69358;SDS011;56520;49.066;8.660;2023-01-28T08:57:44;5.07;;;1.48;;
69358;SDS011;56520;49.066;8.660;2023-01-28T09:02:36;3.97;;;1.58;;
69358;SDS011;56520;49.066;8.660;2023-01-28T09:07:27;2.90;;;1.08;;
69358;SDS011;56520;49.066;8.660;2023-01-28T09:12:18;4.70;;;1.73;;
69358;SDS011;56520;49.066;8.660;2023-01-28T09:17:08;3.50;;;1.57;;
69358;SDS011;56520;49.066;8.660;2023-01-28T09:19:34;4.25;;;1.58;;
69358;SDS011;56520;49.066;8.660;2023-01-28T09:24:27;4.13;;;1.45;;
69358;SDS011;56520;49.066;8.660;2023-01-28T09:26:52;4.00;;;1.60;;
69358;SDS011;56520;49.066;8.660;2023-01-28T09:31:43;4.50;;;2.00;;
69358;SDS011;56520;49.066;8.660;2023-01-28T09:36:34;3.17;;;1.03;;
69358;SDS011;56520;49.066;8.660;2023-01-28T09:41:52;4.65;;;1.48;;
69358;SDS011;56520;49.066;8.660;2023-01-28T09:44:33;4.25;;;1.75;;
69358;SDS011;56520;49.066;8.660;2023-01-28T09:50:00;5.03;;;2.22;;
69358;SDS011;56520;49.066;8.660;2023-01-28T09:52:31;3.97;;;1.70;;
69358;SDS011;56520;49.066;8.660;2023-01-28T10:00:17;4.40;;;1.83;;
69358;SDS011;56520;49.066;8.660;2023-01-28T10:10:41;5.70;;;2.10;;
69358;SDS011;56520;49.066;8.660;2023-01-28T10:15:46;7.07;;;1.92;;
69358;SDS011;56520;49.066;8.660;2023-01-28T10:18:25;5.65;;;1.90;;
69358;SDS011;56520;49.066;8.660;2023-01-28T10:21:00;5.22;;;2.05;;
69358;SDS011;56520;49.066;8.660;2023-01-28T10:23:35;5.10;;;2.00;;
69358;SDS011;56520;49.066;8.660;2023-01-28T10:26:15;6.00;;;2.20;;
69358;SDS011;56520;49.066;8.660;2023-01-28T10:28:48;3.42;;;1.50;;
69358;SDS011;56520;49.066;8.660;2023-01-28T10:31:21;5.32;;;2.00;;
69358;SDS011;56520;49.066;8.660;2023-01-28T10:33:47;5.00;;;1.90;;
69358;SDS011;56520;49.066;8.660;2023-01-28T10:38:39;3.90;;;1.83;;
69358;SDS011;56520;49.066;8.660;2023-01-28T10:43:34;3.58;;;1.55;;
69358;SDS011;56520;49.066;8.660;2023-01-28T10:46:02;5.15;;;2.10;;
69358;SDS011;56520;49.066;8.660;2023-01-28T10:48:36;6.70;;;2.47;;
69358;SDS011;56520;49.066;8.660;2023-01-28T10:51:06;8.75;;;3.42;;
69358;SDS011;56520;49.066;8.660;2023-01-28T10:56:02;4.70;;;2.03;;
69358;SDS011;56520;49.066;8.660;2023-01-28T10:58:30;5.38;;;2.03;;
69358;SDS011;56520;49.066;8.660;2023-01-28T11:00:59;5.30;;;1.90;;
69358;SDS011;56520;49.066;8.660;2023-01-28T11:03:27;4.65;;;1.90;;
69358;SDS011;56520;49.066;8.660;2023-01-28T11:05:57;5.40;;;1.65;;
69358;SDS011;56520;49.066;8.660;2023-01-28T11:08:24;3.92;;;1.45;;
69358;SDS011;56520;49.066;8.660;2023-01-28T11:10:52;4.70;;;1.88;;
69358;SDS011;56520;49.066;8.660;2023-01-28T11:18:15;5.95;;;1.70;;
69358;SDS011;56520;49.066;8.660;2023-01-28T11:20:53;4.03;;;1.50;;
69358;SDS011;56520;49.066;8.660;2023-01-28T11:23:23;4.82;;;1.65;;
69358;SDS011;56520;49.066;8.660;2023-01-28T11:26:08;5.03;;;1.80;;
69358;SDS011;56520;49.066;8.660;2023-01-28T11:28:41;5.45;;;1.73;;
69358;SDS011;56520;49.066;8.660;2023-01-28T11:31:07;5.30;;;1.90;;
69358;SDS011;56520;49.066;8.660;2023-01-28T11:33:38;4.88;;;1.98;;
69358;SDS011;56520;49.066;8.660;2023-01-28T11:41:16;5.38;;;1.75;;
69358;SDS011;56520;49.066;8.660;2023-01-28T11:43:43;3.50;;;1.15;;
69358;SDS011;56520;49.066;8.660;2023-01-28T11:51:39;5.28;;;1.83;;
69358;SDS011;56520;49.066;8.660;2023-01-28T12:16:20;3.60;;;1.40;;
69358;SDS011;56520;49.066;8.660;2023-01-28T12:22:19;5.70;;;1.73;;
69358;SDS011;56520;49.066;8.660;2023-01-28T12:27:33;3.63;;;1.40;;
69358;SDS011;56520;49.066;8.660;2023-01-28T12:38:43;4.57;;;1.75;;
69358;SDS011;56520;49.066;8.660;2023-01-28T12:41:21;6.65;;;1.35;;
69358;SDS011;56520;49.066;8.660;2023-01-28T12:46:47;3.67;;;1.42;;
69358;SDS011;56520;49.066;8.660;2023-01-28T12:57:28;5.05;;;1.90;;
69358;SDS011;56520;49.066;8.660;2023-01-28T13:00:12;4.95;;;1.58;;
69358;SDS011;56520;49.066;8.660;2023-01-28T13:05:36;4.15;;;1.55;;
69358;SDS011;56520;49.066;8.660;2023-01-28T13:08:12;4.22;;;1.40;;
69358;SDS011;56520;49.066;8.660;2023-01-28T13:10:44;3.45;;;1.40;;
69358;SDS011;56520;49.066;8.660;2023-01-28T13:16:06;3.17;;;1.15;;
69358;SDS011;56520;49.066;8.660;2023-01-28T13:21:12;4.57;;;1.80;;
69358;SDS011;56520;49.066;8.660;2023-01-28T13:23:44;4.28;;;1.33;;
69358;SDS011;56520;49.066;8.660;2023-01-28T13:28:42;4.93;;;2.08;;
69358;SDS011;56520;49.066;8.660;2023-01-28T13:33:42;3.75;;;1.42;;
69358;SDS011;56520;49.066;8.660;2023-01-28T13:38:42;3.60;;;1.60;;
69358;SDS011;56520;49.066;8.660;2023-01-28T13:41:09;3.38;;;1.30;;
69358;SDS011;56520;49.066;8.660;2023-01-28T13:46:07;3.42;;;1.25;;
69358;SDS011;56520;49.066;8.660;2023-01-28T13:48:51;4.00;;;1.50;;
69358;SDS011;56520;49.066;8.660;2023-01-28T13:51:26;3.67;;;1.40;;
69358;SDS011;56520;49.066;8.660;2023-01-28T13:53:57;3.30;;;1.50;;
69358;SDS011;56520;49.066;8.660;2023-01-28T13:56:30;3.08;;;1.20;;
69358;SDS011;56520;49.066;8.660;2023-01-28T14:10:08;5.75;;;2.00;;
69358;SDS011;56520;49.066;8.660;2023-01-28T14:18:27;5.25;;;1.70;;
69358;SDS011;56520;49.066;8.660;2023-01-28T14:20:58;4.70;;;1.65;;
69358;SDS011;56520;49.066;8.660;2023-01-28T14:23:26;3.47;;;1.55;;
69358;SDS011;56520;49.066;8.660;2023-01-28T14:26:00;4.97;;;1.42;;
69358;SDS011;56520;49.066;8.660;2023-01-28T14:28:38;3.63;;;1.35;;
69358;SDS011;56520;49.066;8.660;2023-01-28T14:31:07;4.45;;;1.50;;
69358;SDS011;56520;49.066;8.660;2023-01-28T14:33:38;4.60;;;1.85;;
69358;SDS011;56520;49.066;8.660;2023-01-28T14:36:05;5.13;;;1.73;;
69358;SDS011;56520;49.066;8.660;2023-01-28T14:38:37;4.32;;;1.63;;
69358;SDS011;56520;49.066;8.660;2023-01-28T14:41:04;4.35;;;1.60;;
69358;SDS011;56520;49.066;8.660;2023-01-28T14:43:30;4.55;;;1.67;;
69358;SDS011;56520;49.066;8.660;2023-01-28T14:57:32;2.30;;;1.05;;
69358;SDS011;56520;49.066;8.660;2023-01-28T15:00:27;2.85;;;1.17;;
69358;SDS011;56520;49.066;8.660;2023-01-28T15:02:52;2.97;;;1.38;;
69358;SDS011;56520;49.066;8.660;2023-01-28T15:07:47;1.95;;;1.00;;
69358;SDS011;56520;49.066;8.660;2023-01-28T15:12:57;1.77;;;0.88;;
69358;SDS011;56520;49.066;8.660;2023-01-28T15:20:58;2.42;;;0.90;;
69358;SDS011;56520;49.066;8.660;2023-01-28T15:23:31;2.30;;;1.00;;
69358;SDS011;56520;49.066;8.660;2023-01-28T15:26:04;2.88;;;0.98;;
69358;SDS011;56520;49.066;8.660;2023-01-28T15:28:31;3.40;;;1.42;;
69358;SDS011;56520;49.066;8.660;2023-01-28T15:30:58;2.13;;;0.93;;
69358;SDS011;56520;49.066;8.660;2023-01-28T15:35:54;2.40;;;0.95;;
69358;SDS011;56520;49.066;8.660;2023-01-28T15:38:21;1.85;;;0.75;;
69358;SDS011;56520;49.066;8.660;2023-01-28T15:40:54;1.95;;;1.00;;
69358;SDS011;56520;49.066;8.660;2023-01-28T15:43:26;2.60;;;1.15;;
69358;SDS011;56520;49.066;8.660;2023-01-28T15:45:57;3.15;;;1.10;;
69358;SDS011;56520;49.066;8.660;2023-01-28T15:48:24;3.67;;;1.20;;
69358;SDS011;56520;49.066;8.660;2023-01-28T15:51:02;3.20;;;1.30;;
69358;SDS011;56520;49.066;8.660;2023-01-28T15:53:32;4.32;;;1.90;;
69358;SDS011;56520;49.066;8.660;2023-01-28T15:56:04;5.88;;;1.77;;
69358;SDS011;56520;49.066;8.660;2023-01-28T15:58:31;3.42;;;1.35;;
69358;SDS011;56520;49.066;8.660;2023-01-28T16:03:34;4.00;;;1.38;;
69358;SDS011;56520;49.066;8.660;2023-01-28T16:06:04;2.80;;;1.10;;
69358;SDS011;56520;49.066;8.660;2023-01-28T16:11:23;1.77;;;0.77;;
69358;SDS011;56520;49.066;8.660;2023-01-28T16:13:57;3.42;;;1.50;;
69358;SDS011;56520;49.066;8.660;2023-01-28T16:18:53;4.63;;;1.70;;
69358;SDS011;56520;49.066;8.660;2023-01-28T16:21:36;3.75;;;1.40;;
69358;SDS011;56520;49.066;8.660;2023-01-28T16:24:26;3.08;;;1.25;;
69358;SDS011;56520;49.066;8.660;2023-01-28T16:27:04;4.47;;;1.60;;
69358;SDS011;56520;49.066;8.660;2023-01-28T16:29:31;4.40;;;1.55;;
69358;SDS011;56520;49.066;8.660;2023-01-28T16:34:24;4.68;;;2.08;;
69358;SDS011;56520;49.066;8.660;2023-01-28T16:36:51;5.13;;;1.83;;
69358;SDS011;56520;49.066;8.660;2023-01-28T16:41:43;2.50;;;1.17;;
69358;SDS011;56520;49.066;8.660;2023-01-28T16:44:14;3.40;;;1.35;;
69358;SDS011;56520;49.066;8.660;2023-01-28T16:46:41;3.35;;;1.30;;
69358;SDS011;56520;49.066;8.660;2023-01-28T16:51:32;4.95;;;0.93;;
69358;SDS011;56520;49.066;8.660;2023-01-28T16:54:00;3.50;;;1.23;;
69358;SDS011;56520;49.066;8.660;2023-01-28T16:56:27;3.92;;;1.52;;
69358;SDS011;56520;49.066;8.660;2023-01-28T16:58:53;3.40;;;1.23;;
69358;SDS011;56520;49.066;8.660;2023-01-28T17:01:19;4.13;;;1.42;;
69358;SDS011;56520;49.066;8.660;2023-01-28T17:03:45;5.75;;;1.70;;
69358;SDS011;56520;49.066;8.660;2023-01-28T17:08:40;4.47;;;1.65;;
69358;SDS011;56520;49.066;8.660;2023-01-28T17:11:06;3.75;;;1.60;;
69358;SDS011;56520;49.066;8.660;2023-01-28T17:16:00;4.40;;;1.48;;
69358;SDS011;56520;49.066;8.660;2023-01-28T17:18:26;4.00;;;1.45;;
69358;SDS011;56520;49.066;8.660;2023-01-28T17:23:18;4.87;;;1.83;;
69358;SDS011;56520;49.066;8.660;2023-01-28T17:25:47;5.88;;;1.92;;
69358;SDS011;56520;49.066;8.660;2023-01-28T17:30:39;4.22;;;2.17;;
69358;SDS011;56520;49.066;8.660;2023-01-28T17:33:05;4.05;;;1.63;;
69358;SDS011;56520;49.066;8.660;2023-01-28T17:35:31;10.25;;;2.90;;
69358;SDS011;56520;49.066;8.660;2023-01-28T17:37:59;6.15;;;2.60;;
69358;SDS011;56520;49.066;8.660;2023-01-28T17:40:26;4.47;;;1.50;;
69358;SDS011;56520;49.066;8.660;2023-01-28T17:42:51;4.80;;;2.10;;
69358;SDS011;56520;49.066;8.660;2023-01-28T17:45:18;5.35;;;1.90;;
69358;SDS011;56520;49.066;8.660;2023-01-28T17:47:44;4.40;;;1.60;;
69358;SDS011;56520;49.066;8.660;2023-01-28T17:52:35;4.75;;;1.65;;
69358;SDS011;56520;49.066;8.660;2023-01-28T17:55:01;2.35;;;0.88;;
69358;SDS011;56520;49.066;8.660;2023-01-28T17:57:26;5.28;;;2.00;;
69358;SDS011;56520;49.066;8.660;2023-01-28T18:02:17;7.45;;;4.22;;
69358;SDS011;56520;49.066;8.660;2023-01-28T18:07:08;5.30;;;1.53;;
69358;SDS011;56520;49.066;8.660;2023-01-28T18:09:38;4.13;;;1.90;;
69358;SDS011;56520;49.066;8.660;2023-01-28T18:12:05;3.47;;;1.40;;
69358;SDS011;56520;49.066;8.660;2023-01-28T18:14:32;4.82;;;1.35;;
69358;SDS011;56520;49.066;8.660;2023-01-28T18:16:58;3.92;;;1.33;;
69358;SDS011;56520;49.066;8.660;2023-01-28T18:19:25;6.30;;;1.70;;
69358;SDS011;56520;49.066;8.660;2023-01-28T18:24:16;3.50;;;1.30;;
69358;SDS011;56520;49.066;8.660;2023-01-28T18:29:07;3.83;;;1.33;;
69358;SDS011;56520;49.066;8.660;2023-01-28T18:31:33;3.70;;;1.48;;
69358;SDS011;56520;49.066;8.660;2023-01-28T18:36:24;3.60;;;1.60;;
69358;SDS011;56520;49.066;8.660;2023-01-28T18:38:49;4.18;;;1.55;;
69358;SDS011;56520;49.066;8.660;2023-01-28T18:41:15;3.90;;;1.45;;
69358;SDS011;56520;49.066;8.660;2023-01-28T18:43:40;4.90;;;1.70;;
69358;SDS011;56520;49.066;8.660;2023-01-28T18:46:12;6.18;;;2.00;;
69358;SDS011;56520;49.066;8.660;2023-01-28T18:48:40;4.72;;;1.55;;
69358;SDS011;56520;49.066;8.660;2023-01-28T18:51:05;4.38;;;1.77;;
69358;SDS011;56520;49.066;8.660;2023-01-28T18:56:01;4.13;;;1.52;;
69358;SDS011;56520;49.066;8.660;2023-01-28T18:58:28;3.67;;;1.60;;
69358;SDS011;56520;49.066;8.660;2023-01-28T19:00:53;5.20;;;2.00;;
69358;SDS011;56520;49.066;8.660;2023-01-28T19:05:44;4.10;;;1.47;;
69358;SDS011;56520;49.066;8.660;2023-01-28T19:08:09;3.58;;;1.25;;
69358;SDS011;56520;49.066;8.660;2023-01-28T19:13:00;4.38;;;1.92;;
69358;SDS011;56520;49.066;8.660;2023-01-28T19:17:51;4.68;;;1.40;;
69358;SDS011;56520;49.066;8.660;2023-01-28T19:20:17;5.75;;;2.10;;
69358;SDS011;56520;49.066;8.660;2023-01-28T19:22:42;5.30;;;2.30;;
69358;SDS011;56520;49.066;8.660;2023-01-28T19:25:08;3.92;;;1.73;;
69358;SDS011;56520;49.066;8.660;2023-01-28T19:27:34;6.22;;;2.28;;
69358;SDS011;56520;49.066;8.660;2023-01-28T19:29:59;8.48;;;3.35;;
69358;SDS011;56520;49.066;8.660;2023-01-28T19:32:25;6.25;;;2.45;;
69358;SDS011;56520;49.066;8.660;2023-01-28T19:34:51;5.97;;;2.40;;
69358;SDS011;56520;49.066;8.660;2023-01-28T19:37:17;4.80;;;1.67;;
69358;SDS011;56520;49.066;8.660;2023-01-28T19:42:09;5.15;;;1.60;;
69358;SDS011;56520;49.066;8.660;2023-01-28T19:44:34;5.75;;;2.05;;
69358;SDS011;56520;49.066;8.660;2023-01-28T19:47:00;5.40;;;2.00;;
69358;SDS011;56520;49.066;8.660;2023-01-28T19:49:26;4.63;;;1.52;;
69358;SDS011;56520;49.066;8.660;2023-01-28T19:54:17;4.68;;;1.52;;
69358;SDS011;56520;49.066;8.660;2023-01-28T19:59:08;4.87;;;1.90;;
69358;SDS011;56520;49.066;8.660;2023-01-28T20:01:34;5.70;;;2.28;;
69358;SDS011;56520;49.066;8.660;2023-01-28T20:04:00;7.72;;;3.17;;
69358;SDS011;56520;49.066;8.660;2023-01-28T20:06:27;6.60;;;2.67;;
69358;SDS011;56520;49.066;8.660;2023-01-28T20:08:55;5.45;;;2.38;;
69358;SDS011;56520;49.066;8.660;2023-01-28T20:11:22;8.98;;;2.90;;
69358;SDS011;56520;49.066;8.660;2023-01-28T20:13:49;7.97;;;2.50;;
69358;SDS011;56520;49.066;8.660;2023-01-28T20:16:19;6.20;;;2.58;;
69358;SDS011;56520;49.066;8.660;2023-01-28T20:18:48;5.78;;;2.17;;
69358;SDS011;56520;49.066;8.660;2023-01-28T20:21:18;4.32;;;1.85;;
69358;SDS011;56520;49.066;8.660;2023-01-28T20:23:45;6.22;;;2.22;;
69358;SDS011;56520;49.066;8.660;2023-01-28T20:26:14;4.90;;;2.10;;
69358;SDS011;56520;49.066;8.660;2023-01-28T20:28:40;7.15;;;2.63;;
69358;SDS011;56520;49.066;8.660;2023-01-28T20:31:06;6.00;;;2.63;;
69358;SDS011;56520;49.066;8.660;2023-01-28T20:33:33;5.70;;;2.15;;
69358;SDS011;56520;49.066;8.660;2023-01-28T20:36:03;5.55;;;2.25;;
69358;SDS011;56520;49.066;8.660;2023-01-28T20:38:34;5.63;;;2.08;;
69358;SDS011;56520;49.066;8.660;2023-01-28T20:41:04;5.10;;;1.90;;
69358;SDS011;56520;49.066;8.660;2023-01-28T20:43:34;6.22;;;2.10;;
69358;SDS011;56520;49.066;8.660;2023-01-28T20:46:02;5.55;;;2.25;;
69358;SDS011;56520;49.066;8.660;2023-01-28T20:48:33;5.00;;;1.90;;
69358;SDS011;56520;49.066;8.660;2023-01-28T20:51:05;6.50;;;1.98;;
69358;SDS011;56520;49.066;8.660;2023-01-28T20:53:32;4.45;;;1.70;;